createdAt,value
2023-04-19T00:03:52.148Z,53.14
2023-04-19T00:08:44.494Z,53.00
2023-04-19T00:13:36.431Z,53.22
2023-04-19T00:18:28.195Z,52.97
2023-04-19T00:23:20.124Z,53.47
2023-04-19T00:28:11.944Z,53.76
2023-04-19T00:33:03.829Z,53.54
2023-04-19T00:37:55.735Z,54.09
2023-04-19T00:42:47.494Z,54.09
2023-04-19T00:47:39.822Z,54.13
2023-04-19T00:52:33.199Z,53.69
2023-04-19T00:57:25.462Z,53.77
2023-04-19T01:02:17.791Z,53.90
2023-04-19T01:07:09.670Z,54.48
2023-04-19T01:12:04.828Z,53.86
2023-04-19T01:16:57.487Z,54.25
2023-04-19T01:21:52.906Z,54.03
2023-04-19T01:26:44.824Z,54.16
2023-04-19T01:31:36.871Z,54.84
2023-04-19T01:36:29.006Z,54.76
2023-04-19T01:41:22.741Z,55.42
2023-04-19T01:46:14.570Z,56.17
2023-04-19T01:51:06.446Z,57.40
2023-04-19T01:55:59.796Z,56.83
2023-04-19T02:00:51.649Z,56.89
2023-04-19T02:05:43.453Z,56.70
2023-04-19T02:10:35.983Z,56.86
2023-04-19T02:15:27.746Z,57.47
2023-04-19T02:20:19.510Z,57.58
2023-04-19T02:25:13.900Z,57.10
2023-04-19T02:30:06.436Z,57.13
2023-04-19T02:34:58.799Z,57.12
2023-04-19T02:39:50.719Z,57.23
2023-04-19T02:44:42.516Z,57.22
2023-04-19T02:49:37.032Z,56.77
2023-04-19T02:54:29.360Z,57.03
2023-04-19T02:59:21.155Z,57.69
2023-04-19T03:04:13.255Z,58.15
2023-04-19T03:09:06.629Z,58.23
2023-04-19T03:13:58.415Z,58.40
2023-04-19T03:18:50.209Z,58.78
2023-04-19T03:23:46.208Z,59.33
2023-04-19T03:28:38.777Z,58.70
2023-04-19T03:33:46.830Z,59.72
2023-04-19T03:38:40.834Z,60.16
2023-04-19T03:43:36.738Z,60.12
2023-04-19T03:48:28.447Z,60.47
2023-04-19T03:53:21.382Z,61.07
2023-04-19T03:58:13.222Z,60.80
2023-04-19T04:03:27.956Z,61.27
2023-04-19T04:08:20.147Z,61.85
2023-04-19T04:13:12.755Z,62.04
2023-04-19T04:18:24.525Z,62.44
2023-04-19T04:23:16.555Z,62.70
2023-04-19T04:28:13.711Z,61.88
2023-04-19T04:33:06.179Z,61.55
2023-04-19T04:37:59.246Z,62.00
2023-04-19T04:42:53.017Z,62.30
2023-04-19T13:06:49.463Z,24.88
2023-04-19T13:11:41.311Z,24.50
2023-04-19T13:16:33.334Z,23.65
2023-04-19T13:21:25.669Z,23.81
2023-04-19T13:26:17.746Z,22.75
2023-04-19T13:31:09.631Z,22.63
2023-04-19T13:36:01.530Z,21.99
2023-04-19T13:40:53.463Z,21.81
2023-04-19T13:45:45.780Z,21.68
2023-04-19T13:50:37.651Z,21.35
2023-04-19T13:55:29.444Z,21.49
2023-04-19T14:00:21.523Z,22.04
2023-04-19T14:05:13.285Z,22.27
2023-04-19T14:10:07.027Z,22.40
2023-04-19T14:14:59.529Z,22.10
2023-04-19T14:19:51.811Z,21.88
2023-04-19T14:24:43.511Z,21.82
2023-04-19T14:29:35.311Z,22.19
2023-04-19T14:34:28.314Z,22.08
2023-04-19T14:39:20.340Z,21.41
2023-04-19T14:44:12.014Z,21.91
2023-04-19T14:49:05.872Z,21.76
2023-04-19T14:53:59.641Z,21.62
2023-04-19T14:58:53.251Z,21.51
2023-04-19T15:03:45.217Z,21.69
2023-04-19T15:08:37.125Z,21.82
2023-04-19T15:13:29.888Z,21.79
2023-04-19T15:18:21.709Z,21.65
2023-04-19T15:23:13.540Z,21.56
2023-04-19T15:28:05.602Z,22.31
2023-04-19T15:32:57.312Z,22.25
2023-04-19T15:37:49.096Z,22.74
2023-04-19T15:42:40.852Z,23.30
2023-04-19T15:47:34.274Z,23.54
2023-04-19T15:52:26.230Z,23.92
2023-04-19T15:57:18.470Z,24.29
2023-04-19T16:02:10.288Z,24.06
2023-04-19T16:07:02.091Z,24.00
2023-04-19T16:11:53.880Z,24.47
2023-04-19T16:16:45.676Z,24.81
2023-04-19T16:21:37.523Z,24.85
2023-04-19T16:26:29.385Z,24.88
2023-04-19T16:31:21.402Z,25.38
2023-04-19T16:36:13.309Z,25.45
2023-04-19T16:41:05.956Z,25.23
2023-04-19T16:45:57.895Z,24.79
2023-04-19T16:50:49.688Z,25.25
2023-04-19T16:55:41.446Z,24.83
2023-04-19T17:00:33.279Z,24.68
2023-04-19T17:05:25.014Z,25.02
2023-04-19T17:10:16.914Z,25.39
2023-04-19T17:15:08.982Z,25.67
2023-04-19T17:20:00.810Z,25.47
2023-04-19T17:24:54.187Z,25.56
2023-04-19T17:29:45.942Z,24.70
2023-04-19T18:49:26.112Z,28.71
2023-04-19T18:54:19.433Z,29.08
2023-04-19T18:59:11.351Z,29.24
2023-04-19T19:09:00.117Z,30.02
2023-04-19T19:13:52.809Z,30.25
2023-04-19T19:18:49.792Z,30.77
2023-04-19T19:23:45.651Z,31.46
2023-04-19T19:28:49.143Z,31.60
2023-04-19T19:34:18.718Z,32.25
2023-04-19T19:39:46.312Z,32.52
2023-04-19T19:44:54.768Z,32.48
2023-04-19T19:50:17.528Z,32.91
2023-04-19T19:55:01.705Z,33.12
2023-04-19T22:03:27.420Z,39.32
2023-04-19T22:08:19.263Z,39.51
2023-04-19T22:13:10.999Z,39.68
2023-04-19T22:18:03.339Z,40.02
2023-04-19T22:22:56.175Z,39.66
2023-04-19T22:27:48.958Z,39.70
2023-04-19T22:32:41.353Z,40.06
2023-04-19T22:37:33.202Z,39.94
2023-04-19T22:42:24.964Z,40.25
2023-04-19T22:47:17.143Z,40.67
2023-04-19T22:52:09.076Z,40.70
2023-04-19T22:57:00.904Z,40.35
2023-04-19T23:01:52.935Z,40.88
2023-04-19T23:06:45.403Z,41.03
2023-04-19T23:11:37.892Z,40.82
2023-04-19T23:16:29.821Z,41.27
2023-04-19T23:21:21.884Z,40.78
2023-04-19T23:26:13.769Z,41.78
2023-04-19T23:37:43.124Z,41.09
2023-04-19T23:42:39.251Z,41.24
2023-04-19T23:47:31.287Z,40.53
2023-04-19T23:52:23.125Z,40.48
2023-04-19T23:57:15.065Z,40.19
